sensor_id;sensor_type;location;lat;lon;timestamp;temperature;humidity
4207;DHT22;2117;47.972;7.830;2023-04-24T00:01:13;12.20;99.90
4207;DHT22;2117;47.972;7.830;2023-04-24T00:03:39;12.20;99.90
4207;DHT22;2117;47.972;7.830;2023-04-24T00:06:05;12.20;99.90
4207;DHT22;2117;47.972;7.830;2023-04-24T00:08:33;12.10;99.90
4207;DHT22;2117;47.972;7.830;2023-04-24T00:10:59;12.10;99.90
4207;DHT22;2117;47.972;7.830;2023-04-24T00:13:25;12.10;99.90
4207;DHT22;2117;47.972;7.830;2023-04-24T00:15:51;12.10;99.90
4207;DHT22;2117;47.972;7.830;2023-04-24T00:18:17;12.10;99.90
4207;DHT22;2117;47.972;7.830;2023-04-24T00:20:42;12.10;99.90
4207;DHT22;2117;47.972;7.830;2023-04-24T00:23:09;12.10;99.90
4207;DHT22;2117;47.972;7.830;2023-04-24T00:25:34;12.10;99.90
4207;DHT22;2117;47.972;7.830;2023-04-24T00:28:00;12.10;99.90
4207;DHT22;2117;47.972;7.830;2023-04-24T00:30:26;12.10;99.90
4207;DHT22;2117;47.972;7.830;2023-04-24T00:32:51;12.00;99.90
4207;DHT22;2117;47.972;7.830;2023-04-24T00:35:17;12.10;99.90
4207;DHT22;2117;47.972;7.830;2023-04-24T00:37:45;12.10;99.90
4207;DHT22;2117;47.972;7.830;2023-04-24T00:40:11;12.10;99.90
4207;DHT22;2117;47.972;7.830;2023-04-24T00:42:36;12.10;99.90
4207;DHT22;2117;47.972;7.830;2023-04-24T00:45:02;12.00;99.90
4207;DHT22;2117;47.972;7.830;2023-04-24T00:47:28;12.00;99.90
4207;DHT22;2117;47.972;7.830;2023-04-24T00:49:55;12.00;99.90
4207;DHT22;2117;47.972;7.830;2023-04-24T00:52:20;12.00;99.90
4207;DHT22;2117;47.972;7.830;2023-04-24T00:54:49;12.00;99.90
4207;DHT22;2117;47.972;7.830;2023-04-24T00:57:15;11.90;99.90
4207;DHT22;2117;47.972;7.830;2023-04-24T00:59:42;11.90;99.90
4207;DHT22;2117;47.972;7.830;2023-04-24T01:02:09;12.00;99.90
4207;DHT22;2117;47.972;7.830;2023-04-24T01:04:36;12.00;99.90
4207;DHT22;2117;47.972;7.830;2023-04-24T01:07:02;11.90;99.90
4207;DHT22;2117;47.972;7.830;2023-04-24T01:09:28;11.90;99.90
4207;DHT22;2117;47.972;7.830;2023-04-24T01:11:54;11.80;99.90
4207;DHT22;2117;47.972;7.830;2023-04-24T01:14:20;11.90;99.90
4207;DHT22;2117;47.972;7.830;2023-04-24T01:16:45;11.80;99.90
4207;DHT22;2117;47.972;7.830;2023-04-24T01:19:11;11.80;99.90
4207;DHT22;2117;47.972;7.830;2023-04-24T01:21:38;11.80;99.90
4207;DHT22;2117;47.972;7.830;2023-04-24T01:24:05;11.80;99.90
4207;DHT22;2117;47.972;7.830;2023-04-24T01:26:31;11.80;99.90
4207;DHT22;2117;47.972;7.830;2023-04-24T01:28:57;11.80;99.90
4207;DHT22;2117;47.972;7.830;2023-04-24T01:31:23;11.80;99.90
4207;DHT22;2117;47.972;7.830;2023-04-24T01:33:49;11.80;99.90
4207;DHT22;2117;47.972;7.830;2023-04-24T01:36:16;11.80;99.90
4207;DHT22;2117;47.972;7.830;2023-04-24T01:38:42;11.80;99.90
4207;DHT22;2117;47.972;7.830;2023-04-24T01:41:07;11.90;99.90
4207;DHT22;2117;47.972;7.830;2023-04-24T01:43:33;11.80;99.90
4207;DHT22;2117;47.972;7.830;2023-04-24T01:45:59;11.80;99.90
4207;DHT22;2117;47.972;7.830;2023-04-24T01:48:24;11.80;99.90
4207;DHT22;2117;47.972;7.830;2023-04-24T01:50:50;11.80;99.90
4207;DHT22;2117;47.972;7.830;2023-04-24T01:53:15;11.80;99.90
4207;DHT22;2117;47.972;7.830;2023-04-24T01:55:41;11.70;99.90
4207;DHT22;2117;47.972;7.830;2023-04-24T01:58:07;11.60;99.90
4207;DHT22;2117;47.972;7.830;2023-04-24T02:00:32;11.60;99.90
4207;DHT22;2117;47.972;7.830;2023-04-24T02:02:58;11.60;99.90
4207;DHT22;2117;47.972;7.830;2023-04-24T02:05:23;11.60;99.90
4207;DHT22;2117;47.972;7.830;2023-04-24T02:07:49;11.60;99.90
4207;DHT22;2117;47.972;7.830;2023-04-24T02:10:15;11.60;99.90
4207;DHT22;2117;47.972;7.830;2023-04-24T02:12:40;11.60;99.90
4207;DHT22;2117;47.972;7.830;2023-04-24T02:15:06;11.60;99.90
4207;DHT22;2117;47.972;7.830;2023-04-24T02:17:32;11.60;99.90
4207;DHT22;2117;47.972;7.830;2023-04-24T02:19:57;11.60;99.90
4207;DHT22;2117;47.972;7.830;2023-04-24T02:22:23;11.60;99.90
4207;DHT22;2117;47.972;7.830;2023-04-24T02:24:48;11.50;99.90
4207;DHT22;2117;47.972;7.830;2023-04-24T02:27:14;11.50;99.90
4207;DHT22;2117;47.972;7.830;2023-04-24T02:29:40;11.40;99.90
4207;DHT22;2117;47.972;7.830;2023-04-24T02:32:05;11.40;99.90
4207;DHT22;2117;47.972;7.830;2023-04-24T02:34:31;11.40;99.90
4207;DHT22;2117;47.972;7.830;2023-04-24T02:36:57;11.40;99.90
4207;DHT22;2117;47.972;7.830;2023-04-24T02:39:22;11.40;99.90
4207;DHT22;2117;47.972;7.830;2023-04-24T02:41:48;11.30;99.90
4207;DHT22;2117;47.972;7.830;2023-04-24T02:44:13;11.40;99.90
4207;DHT22;2117;47.972;7.830;2023-04-24T02:46:39;11.40;99.90
4207;DHT22;2117;47.972;7.830;2023-04-24T02:49:06;11.40;99.90
4207;DHT22;2117;47.972;7.830;2023-04-24T02:51:32;11.40;99.90
4207;DHT22;2117;47.972;7.830;2023-04-24T02:53:57;11.40;99.90
4207;DHT22;2117;47.972;7.830;2023-04-24T02:56:23;11.40;99.90
4207;DHT22;2117;47.972;7.830;2023-04-24T02:58:48;11.40;99.90
4207;DHT22;2117;47.972;7.830;2023-04-24T03:01:14;11.40;99.90
4207;DHT22;2117;47.972;7.830;2023-04-24T03:03:40;11.40;99.90
4207;DHT22;2117;47.972;7.830;2023-04-24T03:06:05;11.40;99.90
4207;DHT22;2117;47.972;7.830;2023-04-24T03:08:34;11.40;99.90
4207;DHT22;2117;47.972;7.830;2023-04-24T03:11:00;11.40;99.90
4207;DHT22;2117;47.972;7.830;2023-04-24T03:13:26;11.40;99.90
4207;DHT22;2117;47.972;7.830;2023-04-24T03:15:51;11.50;99.90
4207;DHT22;2117;47.972;7.830;2023-04-24T03:18:18;11.50;99.90
4207;DHT22;2117;47.972;7.830;2023-04-24T03:20:45;11.50;99.90
4207;DHT22;2117;47.972;7.830;2023-04-24T03:23:11;11.50;99.90
4207;DHT22;2117;47.972;7.830;2023-04-24T03:25:37;11.40;99.90
4207;DHT22;2117;47.972;7.830;2023-04-24T03:28:02;11.40;99.90
4207;DHT22;2117;47.972;7.830;2023-04-24T03:30:28;11.40;99.90
4207;DHT22;2117;47.972;7.830;2023-04-24T03:32:53;11.30;99.90
4207;DHT22;2117;47.972;7.830;2023-04-24T03:35:19;11.40;99.90
4207;DHT22;2117;47.972;7.830;2023-04-24T03:37:46;11.30;99.90
4207;DHT22;2117;47.972;7.830;2023-04-24T03:40:12;11.30;99.90
4207;DHT22;2117;47.972;7.830;2023-04-24T03:42:37;11.20;99.90
4207;DHT22;2117;47.972;7.830;2023-04-24T03:45:03;11.20;99.90
4207;DHT22;2117;47.972;7.830;2023-04-24T03:47:29;11.20;99.90
4207;DHT22;2117;47.972;7.830;2023-04-24T03:49:54;11.10;99.90
4207;DHT22;2117;47.972;7.830;2023-04-24T03:52:21;11.20;99.90
4207;DHT22;2117;47.972;7.830;2023-04-24T03:54:46;11.20;99.90
4207;DHT22;2117;47.972;7.830;2023-04-24T03:57:12;11.10;99.90
4207;DHT22;2117;47.972;7.830;2023-04-24T03:59:37;11.10;99.90
4207;DHT22;2117;47.972;7.830;2023-04-24T04:02:03;11.10;99.90
4207;DHT22;2117;47.972;7.830;2023-04-24T04:04:28;11.10;99.90
4207;DHT22;2117;47.972;7.830;2023-04-24T04:06:54;11.10;99.90
4207;DHT22;2117;47.972;7.830;2023-04-24T04:09:19;11.00;99.90
4207;DHT22;2117;47.972;7.830;2023-04-24T04:11:45;11.00;99.90
4207;DHT22;2117;47.972;7.830;2023-04-24T04:14:10;11.00;99.90
4207;DHT22;2117;47.972;7.830;2023-04-24T04:16:36;11.00;99.90
4207;DHT22;2117;47.972;7.830;2023-04-24T04:19:02;11.00;99.90
4207;DHT22;2117;47.972;7.830;2023-04-24T04:21:28;11.00;99.90
4207;DHT22;2117;47.972;7.830;2023-04-24T04:23:54;11.00;99.90
4207;DHT22;2117;47.972;7.830;2023-04-24T04:26:19;11.00;99.90
4207;DHT22;2117;47.972;7.830;2023-04-24T04:28:47;11.00;99.90
4207;DHT22;2117;47.972;7.830;2023-04-24T04:31:13;10.90;99.90
4207;DHT22;2117;47.972;7.830;2023-04-24T04:33:38;10.90;99.90
4207;DHT22;2117;47.972;7.830;2023-04-24T04:36:05;10.90;99.90
4207;DHT22;2117;47.972;7.830;2023-04-24T04:38:30;10.90;99.90
4207;DHT22;2117;47.972;7.830;2023-04-24T04:40:56;10.90;99.90
4207;DHT22;2117;47.972;7.830;2023-04-24T04:43:23;11.00;99.90
4207;DHT22;2117;47.972;7.830;2023-04-24T04:45:49;11.00;99.90
4207;DHT22;2117;47.972;7.830;2023-04-24T04:48:17;10.90;99.90
4207;DHT22;2117;47.972;7.830;2023-04-24T04:50:44;10.90;99.90
4207;DHT22;2117;47.972;7.830;2023-04-24T04:53:09;10.90;99.90
4207;DHT22;2117;47.972;7.830;2023-04-24T04:55:36;10.90;99.90
4207;DHT22;2117;47.972;7.830;2023-04-24T04:58:01;10.90;99.90
4207;DHT22;2117;47.972;7.830;2023-04-24T05:00:27;10.90;99.90
4207;DHT22;2117;47.972;7.830;2023-04-24T05:02:54;10.90;99.90
4207;DHT22;2117;47.972;7.830;2023-04-24T05:05:19;10.90;99.90
4207;DHT22;2117;47.972;7.830;2023-04-24T05:07:45;10.90;99.90
4207;DHT22;2117;47.972;7.830;2023-04-24T05:10:11;10.90;99.90
4207;DHT22;2117;47.972;7.830;2023-04-24T05:12:36;10.90;99.90
4207;DHT22;2117;47.972;7.830;2023-04-24T05:15:03;10.80;99.90
4207;DHT22;2117;47.972;7.830;2023-04-24T05:17:29;10.90;99.90
4207;DHT22;2117;47.972;7.830;2023-04-24T05:19:54;10.90;99.90
4207;DHT22;2117;47.972;7.830;2023-04-24T05:22:20;10.90;99.90
4207;DHT22;2117;47.972;7.830;2023-04-24T05:24:46;10.90;99.90
4207;DHT22;2117;47.972;7.830;2023-04-24T05:27:12;10.80;99.90
4207;DHT22;2117;47.972;7.830;2023-04-24T05:29:38;10.80;99.90
4207;DHT22;2117;47.972;7.830;2023-04-24T05:32:03;10.80;99.90
4207;DHT22;2117;47.972;7.830;2023-04-24T05:34:29;10.80;99.90
4207;DHT22;2117;47.972;7.830;2023-04-24T05:36:54;10.80;99.90
4207;DHT22;2117;47.972;7.830;2023-04-24T05:39:20;10.80;99.90
4207;DHT22;2117;47.972;7.830;2023-04-24T05:41:45;10.80;99.90
4207;DHT22;2117;47.972;7.830;2023-04-24T05:44:11;10.70;99.90
4207;DHT22;2117;47.972;7.830;2023-04-24T05:46:36;10.70;99.90
4207;DHT22;2117;47.972;7.830;2023-04-24T05:49:02;10.70;99.90
4207;DHT22;2117;47.972;7.830;2023-04-24T05:51:28;10.70;99.90
4207;DHT22;2117;47.972;7.830;2023-04-24T05:53:54;10.70;99.90
4207;DHT22;2117;47.972;7.830;2023-04-24T05:56:20;10.60;99.90
4207;DHT22;2117;47.972;7.830;2023-04-24T05:58:46;10.60;99.90
4207;DHT22;2117;47.972;7.830;2023-04-24T06:01:13;10.60;99.90
4207;DHT22;2117;47.972;7.830;2023-04-24T06:03:40;10.60;99.90
4207;DHT22;2117;47.972;7.830;2023-04-24T06:06:07;10.70;99.90
4207;DHT22;2117;47.972;7.830;2023-04-24T06:08:32;10.70;99.90
4207;DHT22;2117;47.972;7.830;2023-04-24T06:10:58;10.70;99.90
4207;DHT22;2117;47.972;7.830;2023-04-24T06:13:24;10.70;99.90
4207;DHT22;2117;47.972;7.830;2023-04-24T06:15:50;10.70;99.90
4207;DHT22;2117;47.972;7.830;2023-04-24T06:18:15;10.80;99.90
4207;DHT22;2117;47.972;7.830;2023-04-24T06:20:41;10.80;99.90
4207;DHT22;2117;47.972;7.830;2023-04-24T06:23:06;10.80;99.90
4207;DHT22;2117;47.972;7.830;2023-04-24T06:25:32;10.80;99.90
4207;DHT22;2117;47.972;7.830;2023-04-24T06:27:58;10.70;99.90
4207;DHT22;2117;47.972;7.830;2023-04-24T06:30:23;10.70;99.90
4207;DHT22;2117;47.972;7.830;2023-04-24T06:32:49;10.70;99.90
4207;DHT22;2117;47.972;7.830;2023-04-24T06:35:14;10.70;99.90
4207;DHT22;2117;47.972;7.830;2023-04-24T06:37:41;10.60;99.90
4207;DHT22;2117;47.972;7.830;2023-04-24T06:40:07;10.60;99.90
4207;DHT22;2117;47.972;7.830;2023-04-24T06:42:33;10.60;99.90
4207;DHT22;2117;47.972;7.830;2023-04-24T06:45:00;10.60;99.90
4207;DHT22;2117;47.972;7.830;2023-04-24T06:47:25;10.50;99.90
4207;DHT22;2117;47.972;7.830;2023-04-24T06:49:51;10.50;99.90
4207;DHT22;2117;47.972;7.830;2023-04-24T06:52:18;10.50;99.90
4207;DHT22;2117;47.972;7.830;2023-04-24T06:54:43;10.50;99.90
4207;DHT22;2117;47.972;7.830;2023-04-24T06:57:09;10.60;99.90
4207;DHT22;2117;47.972;7.830;2023-04-24T07:02:01;10.60;99.90
4207;DHT22;2117;47.972;7.830;2023-04-24T07:04:27;10.70;99.90
4207;DHT22;2117;47.972;7.830;2023-04-24T07:06:53;10.70;99.90
4207;DHT22;2117;47.972;7.830;2023-04-24T07:09:24;10.70;99.90
4207;DHT22;2117;47.972;7.830;2023-04-24T07:11:51;10.80;99.90
4207;DHT22;2117;47.972;7.830;2023-04-24T07:14:17;10.80;99.90
4207;DHT22;2117;47.972;7.830;2023-04-24T07:16:43;10.90;99.90
4207;DHT22;2117;47.972;7.830;2023-04-24T07:19:09;10.80;99.90
4207;DHT22;2117;47.972;7.830;2023-04-24T07:21:34;10.80;99.90
4207;DHT22;2117;47.972;7.830;2023-04-24T07:24:00;10.90;99.90
4207;DHT22;2117;47.972;7.830;2023-04-24T07:26:27;10.90;99.90
4207;DHT22;2117;47.972;7.830;2023-04-24T07:28:53;11.00;99.90
4207;DHT22;2117;47.972;7.830;2023-04-24T07:31:19;11.00;99.90
4207;DHT22;2117;47.972;7.830;2023-04-24T07:33:44;11.10;99.90
4207;DHT22;2117;47.972;7.830;2023-04-24T07:36:11;11.10;99.90
4207;DHT22;2117;47.972;7.830;2023-04-24T07:38:41;11.20;99.90
4207;DHT22;2117;47.972;7.830;2023-04-24T07:41:07;11.30;99.90
4207;DHT22;2117;47.972;7.830;2023-04-24T07:43:33;11.30;99.90
4207;DHT22;2117;47.972;7.830;2023-04-24T07:45:59;11.40;99.90
4207;DHT22;2117;47.972;7.830;2023-04-24T07:48:24;11.50;99.90
4207;DHT22;2117;47.972;7.830;2023-04-24T07:50:52;11.60;99.90
4207;DHT22;2117;47.972;7.830;2023-04-24T07:53:17;11.80;99.90
4207;DHT22;2117;47.972;7.830;2023-04-24T07:55:43;11.80;99.90
4207;DHT22;2117;47.972;7.830;2023-04-24T07:58:09;11.90;99.90
4207;DHT22;2117;47.972;7.830;2023-04-24T08:00:34;11.90;99.90
4207;DHT22;2117;47.972;7.830;2023-04-24T08:03:00;12.00;99.90
4207;DHT22;2117;47.972;7.830;2023-04-24T08:05:26;12.00;99.90
4207;DHT22;2117;47.972;7.830;2023-04-24T08:07:53;11.90;99.90
4207;DHT22;2117;47.972;7.830;2023-04-24T08:10:21;11.90;99.90
4207;DHT22;2117;47.972;7.830;2023-04-24T08:12:46;11.90;99.90
4207;DHT22;2117;47.972;7.830;2023-04-24T08:15:12;11.90;99.90
4207;DHT22;2117;47.972;7.830;2023-04-24T08:17:38;11.80;99.90
4207;DHT22;2117;47.972;7.830;2023-04-24T08:20:04;11.80;99.90
4207;DHT22;2117;47.972;7.830;2023-04-24T08:22:30;11.90;99.90
4207;DHT22;2117;47.972;7.830;2023-04-24T08:24:56;11.70;99.90
4207;DHT22;2117;47.972;7.830;2023-04-24T08:27:25;11.70;99.90
4207;DHT22;2117;47.972;7.830;2023-04-24T08:29:53;11.60;99.90
4207;DHT22;2117;47.972;7.830;2023-04-24T08:32:18;11.60;99.90
4207;DHT22;2117;47.972;7.830;2023-04-24T08:34:44;11.70;99.90
4207;DHT22;2117;47.972;7.830;2023-04-24T08:37:10;11.70;99.90
4207;DHT22;2117;47.972;7.830;2023-04-24T08:39:36;11.70;99.90
4207;DHT22;2117;47.972;7.830;2023-04-24T08:42:02;11.80;99.90
4207;DHT22;2117;47.972;7.830;2023-04-24T08:44:33;11.90;99.90
4207;DHT22;2117;47.972;7.830;2023-04-24T08:47:00;12.00;99.90
4207;DHT22;2117;47.972;7.830;2023-04-24T08:49:27;12.00;99.90
4207;DHT22;2117;47.972;7.830;2023-04-24T08:51:53;12.20;99.90
4207;DHT22;2117;47.972;7.830;2023-04-24T08:54:19;12.30;99.90
4207;DHT22;2117;47.972;7.830;2023-04-24T08:56:47;12.40;99.90
4207;DHT22;2117;47.972;7.830;2023-04-24T08:59:14;12.30;99.90
4207;DHT22;2117;47.972;7.830;2023-04-24T09:01:41;12.20;99.90
4207;DHT22;2117;47.972;7.830;2023-04-24T09:04:08;12.20;99.90
4207;DHT22;2117;47.972;7.830;2023-04-24T09:06:38;12.10;99.90
4207;DHT22;2117;47.972;7.830;2023-04-24T09:09:04;12.20;99.90
4207;DHT22;2117;47.972;7.830;2023-04-24T09:11:31;12.30;99.90
4207;DHT22;2117;47.972;7.830;2023-04-24T09:13:58;12.30;99.90
4207;DHT22;2117;47.972;7.830;2023-04-24T09:16:25;12.30;99.90
4207;DHT22;2117;47.972;7.830;2023-04-24T09:18:51;12.30;99.90
4207;DHT22;2117;47.972;7.830;2023-04-24T09:21:16;12.30;99.90
4207;DHT22;2117;47.972;7.830;2023-04-24T09:23:42;12.20;99.90
4207;DHT22;2117;47.972;7.830;2023-04-24T09:26:09;12.20;99.90
4207;DHT22;2117;47.972;7.830;2023-04-24T09:28:37;12.30;99.90
4207;DHT22;2117;47.972;7.830;2023-04-24T09:31:12;12.50;99.90
4207;DHT22;2117;47.972;7.830;2023-04-24T09:33:39;12.30;99.90
4207;DHT22;2117;47.972;7.830;2023-04-24T09:36:05;12.20;99.90
4207;DHT22;2117;47.972;7.830;2023-04-24T09:38:40;12.00;99.90
4207;DHT22;2117;47.972;7.830;2023-04-24T09:41:07;11.90;99.90
4207;DHT22;2117;47.972;7.830;2023-04-24T09:43:34;11.80;99.90
4207;DHT22;2117;47.972;7.830;2023-04-24T09:46:06;11.70;99.90
4207;DHT22;2117;47.972;7.830;2023-04-24T09:48:33;11.70;99.90
4207;DHT22;2117;47.972;7.830;2023-04-24T09:51:01;11.80;99.90
4207;DHT22;2117;47.972;7.830;2023-04-24T09:53:27;12.00;99.90
4207;DHT22;2117;47.972;7.830;2023-04-24T09:55:53;12.00;99.90
4207;DHT22;2117;47.972;7.830;2023-04-24T09:58:29;12.10;99.90
4207;DHT22;2117;47.972;7.830;2023-04-24T10:00:56;12.10;99.90
4207;DHT22;2117;47.972;7.830;2023-04-24T10:03:24;12.10;99.90
4207;DHT22;2117;47.972;7.830;2023-04-24T10:05:51;12.20;99.90
4207;DHT22;2117;47.972;7.830;2023-04-24T10:08:18;12.20;99.90
4207;DHT22;2117;47.972;7.830;2023-04-24T10:10:45;12.70;99.90
4207;DHT22;2117;47.972;7.830;2023-04-24T10:13:12;13.00;99.90
4207;DHT22;2117;47.972;7.830;2023-04-24T10:15:38;13.10;99.90
4207;DHT22;2117;47.972;7.830;2023-04-24T10:18:06;13.20;99.90
4207;DHT22;2117;47.972;7.830;2023-04-24T10:20:33;13.40;99.90
4207;DHT22;2117;47.972;7.830;2023-04-24T10:23:00;13.40;99.90
4207;DHT22;2117;47.972;7.830;2023-04-24T10:25:27;13.40;99.90
4207;DHT22;2117;47.972;7.830;2023-04-24T10:27:54;13.60;99.90
4207;DHT22;2117;47.972;7.830;2023-04-24T10:30:25;13.80;99.90
4207;DHT22;2117;47.972;7.830;2023-04-24T10:32:51;14.10;99.90
4207;DHT22;2117;47.972;7.830;2023-04-24T10:35:17;13.90;99.90
4207;DHT22;2117;47.972;7.830;2023-04-24T10:37:50;14.00;99.90
4207;DHT22;2117;47.972;7.830;2023-04-24T10:40:24;13.70;99.90
4207;DHT22;2117;47.972;7.830;2023-04-24T10:42:52;13.60;99.90
4207;DHT22;2117;47.972;7.830;2023-04-24T10:45:21;13.80;99.90
4207;DHT22;2117;47.972;7.830;2023-04-24T10:47:52;13.70;99.90
4207;DHT22;2117;47.972;7.830;2023-04-24T10:50:17;13.60;99.90
4207;DHT22;2117;47.972;7.830;2023-04-24T10:52:44;13.60;99.90
4207;DHT22;2117;47.972;7.830;2023-04-24T10:55:12;13.80;99.90
4207;DHT22;2117;47.972;7.830;2023-04-24T10:57:39;13.60;99.90
4207;DHT22;2117;47.972;7.830;2023-04-24T11:00:20;13.50;99.90
4207;DHT22;2117;47.972;7.830;2023-04-24T11:02:47;13.60;99.90
4207;DHT22;2117;47.972;7.830;2023-04-24T11:05:19;13.50;99.90
4207;DHT22;2117;47.972;7.830;2023-04-24T11:10:40;13.30;99.90
4207;DHT22;2117;47.972;7.830;2023-04-24T11:13:07;13.30;99.90
4207;DHT22;2117;47.972;7.830;2023-04-24T11:15:32;13.10;99.90
4207;DHT22;2117;47.972;7.830;2023-04-24T11:17:58;12.80;99.90
4207;DHT22;2117;47.972;7.830;2023-04-24T11:20:23;12.80;99.90
4207;DHT22;2117;47.972;7.830;2023-04-24T11:22:53;12.60;99.90
4207;DHT22;2117;47.972;7.830;2023-04-24T11:25:23;12.60;99.90
4207;DHT22;2117;47.972;7.830;2023-04-24T11:27:49;12.60;99.90
4207;DHT22;2117;47.972;7.830;2023-04-24T11:30:20;12.80;99.90
4207;DHT22;2117;47.972;7.830;2023-04-24T11:32:50;13.00;99.90
4207;DHT22;2117;47.972;7.830;2023-04-24T11:35:18;13.20;99.90
4207;DHT22;2117;47.972;7.830;2023-04-24T11:37:46;13.20;99.90
4207;DHT22;2117;47.972;7.830;2023-04-24T11:40:14;13.50;99.90
4207;DHT22;2117;47.972;7.830;2023-04-24T11:42:44;13.70;99.90
4207;DHT22;2117;47.972;7.830;2023-04-24T11:45:20;13.90;99.90
4207;DHT22;2117;47.972;7.830;2023-04-24T11:47:46;14.00;99.90
4207;DHT22;2117;47.972;7.830;2023-04-24T11:50:17;13.90;99.90
4207;DHT22;2117;47.972;7.830;2023-04-24T11:52:45;13.90;99.90
4207;DHT22;2117;47.972;7.830;2023-04-24T11:57:42;13.90;99.90
4207;DHT22;2117;47.972;7.830;2023-04-24T12:00:16;14.00;99.90
4207;DHT22;2117;47.972;7.830;2023-04-24T12:02:41;14.10;99.90
4207;DHT22;2117;47.972;7.830;2023-04-24T12:05:07;14.00;99.90
4207;DHT22;2117;47.972;7.830;2023-04-24T12:07:41;13.90;99.90
4207;DHT22;2117;47.972;7.830;2023-04-24T12:10:09;13.90;99.90
4207;DHT22;2117;47.972;7.830;2023-04-24T12:12:35;14.00;99.90
4207;DHT22;2117;47.972;7.830;2023-04-24T12:15:01;14.10;99.90
4207;DHT22;2117;47.972;7.830;2023-04-24T12:17:33;14.30;99.90
4207;DHT22;2117;47.972;7.830;2023-04-24T12:20:04;14.50;99.90
4207;DHT22;2117;47.972;7.830;2023-04-24T12:22:52;14.70;99.90
4207;DHT22;2117;47.972;7.830;2023-04-24T12:25:23;14.90;99.90
4207;DHT22;2117;47.972;7.830;2023-04-24T12:28:09;14.90;99.90
4207;DHT22;2117;47.972;7.830;2023-04-24T12:30:48;15.10;99.90
4207;DHT22;2117;47.972;7.830;2023-04-24T12:33:20;15.60;99.90
4207;DHT22;2117;47.972;7.830;2023-04-24T12:35:48;16.40;99.90
4207;DHT22;2117;47.972;7.830;2023-04-24T12:38:16;17.20;99.90
4207;DHT22;2117;47.972;7.830;2023-04-24T12:40:46;17.40;99.90
4207;DHT22;2117;47.972;7.830;2023-04-24T12:43:19;17.30;99.90
4207;DHT22;2117;47.972;7.830;2023-04-24T12:45:45;17.20;99.70
4207;DHT22;2117;47.972;7.830;2023-04-24T12:48:11;17.00;99.90
4207;DHT22;2117;47.972;7.830;2023-04-24T12:50:39;16.70;99.90
4207;DHT22;2117;47.972;7.830;2023-04-24T12:53:08;16.50;99.90
4207;DHT22;2117;47.972;7.830;2023-04-24T12:55:34;16.30;99.60
4207;DHT22;2117;47.972;7.830;2023-04-24T12:58:00;16.00;99.90
4207;DHT22;2117;47.972;7.830;2023-04-24T13:00:25;15.90;99.90
4207;DHT22;2117;47.972;7.830;2023-04-24T13:02:51;15.70;99.90
4207;DHT22;2117;47.972;7.830;2023-04-24T13:05:17;15.70;99.90
4207;DHT22;2117;47.972;7.830;2023-04-24T13:07:42;15.80;99.90
4207;DHT22;2117;47.972;7.830;2023-04-24T13:10:08;16.10;99.90
4207;DHT22;2117;47.972;7.830;2023-04-24T13:12:34;16.00;99.90
4207;DHT22;2117;47.972;7.830;2023-04-24T13:15:00;16.10;99.90
4207;DHT22;2117;47.972;7.830;2023-04-24T13:17:26;15.90;99.40
4207;DHT22;2117;47.972;7.830;2023-04-24T13:19:53;15.70;99.20
4207;DHT22;2117;47.972;7.830;2023-04-24T13:22:19;15.70;99.90
4207;DHT22;2117;47.972;7.830;2023-04-24T13:24:45;15.30;99.90
4207;DHT22;2117;47.972;7.830;2023-04-24T13:27:11;15.30;99.90
4207;DHT22;2117;47.972;7.830;2023-04-24T13:29:37;15.20;99.90
4207;DHT22;2117;47.972;7.830;2023-04-24T13:32:03;15.00;99.90
4207;DHT22;2117;47.972;7.830;2023-04-24T13:34:29;15.00;99.90
4207;DHT22;2117;47.972;7.830;2023-04-24T13:36:56;15.00;99.90
4207;DHT22;2117;47.972;7.830;2023-04-24T13:39:22;15.20;99.90
4207;DHT22;2117;47.972;7.830;2023-04-24T13:41:48;15.20;99.90
4207;DHT22;2117;47.972;7.830;2023-04-24T13:44:15;15.40;99.90
4207;DHT22;2117;47.972;7.830;2023-04-24T13:46:42;15.50;99.90
4207;DHT22;2117;47.972;7.830;2023-04-24T13:49:08;15.60;99.90
4207;DHT22;2117;47.972;7.830;2023-04-24T13:51:34;15.60;99.90
4207;DHT22;2117;47.972;7.830;2023-04-24T13:54:00;15.70;99.90
4207;DHT22;2117;47.972;7.830;2023-04-24T13:56:26;15.70;99.90
4207;DHT22;2117;47.972;7.830;2023-04-24T13:58:51;15.70;99.90
4207;DHT22;2117;47.972;7.830;2023-04-24T14:01:18;15.80;99.90
4207;DHT22;2117;47.972;7.830;2023-04-24T14:03:43;15.80;99.90
4207;DHT22;2117;47.972;7.830;2023-04-24T14:06:09;15.90;99.90
4207;DHT22;2117;47.972;7.830;2023-04-24T14:08:35;15.80;99.90
4207;DHT22;2117;47.972;7.830;2023-04-24T14:11:00;15.90;99.90
4207;DHT22;2117;47.972;7.830;2023-04-24T14:13:26;15.70;99.90
4207;DHT22;2117;47.972;7.830;2023-04-24T14:15:53;15.70;99.90
4207;DHT22;2117;47.972;7.830;2023-04-24T14:18:18;15.60;99.90
4207;DHT22;2117;47.972;7.830;2023-04-24T14:20:44;15.50;99.90
4207;DHT22;2117;47.972;7.830;2023-04-24T14:23:10;15.20;99.90
4207;DHT22;2117;47.972;7.830;2023-04-24T14:25:36;15.20;99.90
4207;DHT22;2117;47.972;7.830;2023-04-24T14:28:01;14.90;99.90
4207;DHT22;2117;47.972;7.830;2023-04-24T14:30:27;14.70;99.90
4207;DHT22;2117;47.972;7.830;2023-04-24T14:32:52;14.60;99.90
4207;DHT22;2117;47.972;7.830;2023-04-24T14:35:18;14.50;99.90
4207;DHT22;2117;47.972;7.830;2023-04-24T14:37:44;14.30;99.90
4207;DHT22;2117;47.972;7.830;2023-04-24T14:40:10;14.20;99.90
4207;DHT22;2117;47.972;7.830;2023-04-24T14:42:36;14.20;99.90
4207;DHT22;2117;47.972;7.830;2023-04-24T14:45:02;14.10;99.90
4207;DHT22;2117;47.972;7.830;2023-04-24T14:47:28;14.00;99.90
4207;DHT22;2117;47.972;7.830;2023-04-24T14:49:54;13.90;99.90
4207;DHT22;2117;47.972;7.830;2023-04-24T14:52:20;13.90;99.90
4207;DHT22;2117;47.972;7.830;2023-04-24T14:54:45;13.90;99.90
4207;DHT22;2117;47.972;7.830;2023-04-24T14:57:11;13.80;99.90
4207;DHT22;2117;47.972;7.830;2023-04-24T14:59:36;13.80;99.90
4207;DHT22;2117;47.972;7.830;2023-04-24T15:02:02;13.90;99.90
4207;DHT22;2117;47.972;7.830;2023-04-24T15:04:28;13.90;99.90
4207;DHT22;2117;47.972;7.830;2023-04-24T15:06:55;13.80;99.90
4207;DHT22;2117;47.972;7.830;2023-04-24T15:09:21;13.80;99.90
4207;DHT22;2117;47.972;7.830;2023-04-24T15:11:48;13.90;99.90
4207;DHT22;2117;47.972;7.830;2023-04-24T15:14:14;13.90;99.90
4207;DHT22;2117;47.972;7.830;2023-04-24T15:16:40;13.80;99.90
4207;DHT22;2117;47.972;7.830;2023-04-24T15:19:05;13.80;99.90
4207;DHT22;2117;47.972;7.830;2023-04-24T15:21:31;13.70;99.90
4207;DHT22;2117;47.972;7.830;2023-04-24T15:23:57;13.80;99.90
4207;DHT22;2117;47.972;7.830;2023-04-24T15:26:23;13.80;99.90
4207;DHT22;2117;47.972;7.830;2023-04-24T15:28:49;13.80;99.90
4207;DHT22;2117;47.972;7.830;2023-04-24T15:31:14;13.80;99.90
4207;DHT22;2117;47.972;7.830;2023-04-24T15:33:40;13.70;99.90
4207;DHT22;2117;47.972;7.830;2023-04-24T15:36:06;13.70;99.90
4207;DHT22;2117;47.972;7.830;2023-04-24T15:38:32;13.70;99.90
4207;DHT22;2117;47.972;7.830;2023-04-24T15:40:57;13.70;99.90
4207;DHT22;2117;47.972;7.830;2023-04-24T15:43:23;13.70;99.90
4207;DHT22;2117;47.972;7.830;2023-04-24T15:45:52;13.70;99.90
4207;DHT22;2117;47.972;7.830;2023-04-24T15:48:18;13.60;99.90
4207;DHT22;2117;47.972;7.830;2023-04-24T15:50:44;13.60;99.90
4207;DHT22;2117;47.972;7.830;2023-04-24T15:55:35;13.70;99.90
4207;DHT22;2117;47.972;7.830;2023-04-24T15:58:02;13.60;99.90
4207;DHT22;2117;47.972;7.830;2023-04-24T16:00:27;13.60;99.90
4207;DHT22;2117;47.972;7.830;2023-04-24T16:02:59;13.60;99.90
4207;DHT22;2117;47.972;7.830;2023-04-24T16:05:25;13.60;99.90
4207;DHT22;2117;47.972;7.830;2023-04-24T16:07:50;13.60;99.90